sensor_id;sensor_type;location;lat;lon;timestamp;temperature;humidity
51853;DHT22;37894;53.172;6.598;2024-03-02T00:01:10;7.30;99.90
51853;DHT22;37894;53.172;6.598;2024-03-02T00:03:37;7.00;99.90
51853;DHT22;37894;53.172;6.598;2024-03-02T00:06:03;7.60;99.90
51853;DHT22;37894;53.172;6.598;2024-03-02T00:08:29;7.20;99.90
51853;DHT22;37894;53.172;6.598;2024-03-02T00:11:00;7.10;99.90
51853;DHT22;37894;53.172;6.598;2024-03-02T00:13:26;6.80;99.90
51853;DHT22;37894;53.172;6.598;2024-03-02T00:15:53;7.40;99.90
51853;DHT22;37894;53.172;6.598;2024-03-02T00:18:30;6.80;99.90
51853;DHT22;37894;53.172;6.598;2024-03-02T00:20:57;7.00;99.90
51853;DHT22;37894;53.172;6.598;2024-03-02T00:23:24;7.10;99.90
51853;DHT22;37894;53.172;6.598;2024-03-02T00:25:55;7.70;99.90
51853;DHT22;37894;53.172;6.598;2024-03-02T00:28:26;7.00;99.90
51853;DHT22;37894;53.172;6.598;2024-03-02T00:30:57;6.90;99.90
51853;DHT22;37894;53.172;6.598;2024-03-02T00:33:25;7.10;99.90
51853;DHT22;37894;53.172;6.598;2024-03-02T00:35:51;6.40;99.90
51853;DHT22;37894;53.172;6.598;2024-03-02T00:38:17;6.80;99.90
51853;DHT22;37894;53.172;6.598;2024-03-02T00:40:44;6.90;99.90
51853;DHT22;37894;53.172;6.598;2024-03-02T00:46:03;7.10;99.90
51853;DHT22;37894;53.172;6.598;2024-03-02T00:50:57;6.60;99.90
51853;DHT22;37894;53.172;6.598;2024-03-02T00:53:25;8.20;99.90
51853;DHT22;37894;53.172;6.598;2024-03-02T00:55:51;6.90;99.90
51853;DHT22;37894;53.172;6.598;2024-03-02T00:58:17;7.20;99.90
51853;DHT22;37894;53.172;6.598;2024-03-02T01:08:02;8.20;99.90
51853;DHT22;37894;53.172;6.598;2024-03-02T01:10:28;7.40;99.90
51853;DHT22;37894;53.172;6.598;2024-03-02T01:15:20;7.10;99.90
51853;DHT22;37894;53.172;6.598;2024-03-02T01:17:46;7.30;99.90
51853;DHT22;37894;53.172;6.598;2024-03-02T01:20:12;6.90;99.90
51853;DHT22;37894;53.172;6.598;2024-03-02T01:22:37;7.20;99.90
51853;DHT22;37894;53.172;6.598;2024-03-02T01:25:03;7.20;99.90
51853;DHT22;37894;53.172;6.598;2024-03-02T01:27:29;6.90;99.90
51853;DHT22;37894;53.172;6.598;2024-03-02T01:32:21;7.20;99.90
51853;DHT22;37894;53.172;6.598;2024-03-02T01:34:46;6.90;99.90
51853;DHT22;37894;53.172;6.598;2024-03-02T01:39:38;6.80;99.90
51853;DHT22;37894;53.172;6.598;2024-03-02T01:44:30;7.00;99.90
51853;DHT22;37894;53.172;6.598;2024-03-02T01:49:22;7.70;99.90
51853;DHT22;37894;53.172;6.598;2024-03-02T01:51:48;7.00;99.90
51853;DHT22;37894;53.172;6.598;2024-03-02T01:56:40;7.20;99.90
51853;DHT22;37894;53.172;6.598;2024-03-02T01:59:06;7.20;99.90
51853;DHT22;37894;53.172;6.598;2024-03-02T02:01:32;7.20;99.90
51853;DHT22;37894;53.172;6.598;2024-03-02T02:03:57;7.30;99.90
51853;DHT22;37894;53.172;6.598;2024-03-02T02:08:49;7.20;99.90
51853;DHT22;37894;53.172;6.598;2024-03-02T02:11:15;7.30;99.90
51853;DHT22;37894;53.172;6.598;2024-03-02T02:13:41;6.80;99.90
51853;DHT22;37894;53.172;6.598;2024-03-02T02:16:07;8.10;99.90
51853;DHT22;37894;53.172;6.598;2024-03-02T02:18:33;7.40;99.90
51853;DHT22;37894;53.172;6.598;2024-03-02T02:23:25;7.20;99.90
51853;DHT22;37894;53.172;6.598;2024-03-02T02:28:17;7.60;99.90
51853;DHT22;37894;53.172;6.598;2024-03-02T02:33:09;7.90;99.90
51853;DHT22;37894;53.172;6.598;2024-03-02T02:35:34;7.50;99.90
51853;DHT22;37894;53.172;6.598;2024-03-02T02:38:00;6.70;99.90
51853;DHT22;37894;53.172;6.598;2024-03-02T02:40:27;7.30;99.90
51853;DHT22;37894;53.172;6.598;2024-03-02T02:42:56;7.40;99.90
51853;DHT22;37894;53.172;6.598;2024-03-02T02:45:22;7.60;99.90
51853;DHT22;37894;53.172;6.598;2024-03-02T02:47:48;7.60;99.90
51853;DHT22;37894;53.172;6.598;2024-03-02T02:50:14;7.40;99.90
51853;DHT22;37894;53.172;6.598;2024-03-02T02:52:41;7.10;99.90
51853;DHT22;37894;53.172;6.598;2024-03-02T02:55:08;7.80;99.90
51853;DHT22;37894;53.172;6.598;2024-03-02T03:00:05;7.70;99.90
51853;DHT22;37894;53.172;6.598;2024-03-02T03:02:36;7.70;99.90
51853;DHT22;37894;53.172;6.598;2024-03-02T03:09:54;7.90;99.90
51853;DHT22;37894;53.172;6.598;2024-03-02T03:14:46;7.60;99.90
51853;DHT22;37894;53.172;6.598;2024-03-02T03:19:38;7.70;99.90
51853;DHT22;37894;53.172;6.598;2024-03-02T03:24:30;8.00;99.90
51853;DHT22;37894;53.172;6.598;2024-03-02T03:29:22;7.70;99.90
51853;DHT22;37894;53.172;6.598;2024-03-02T03:31:47;7.70;99.90
51853;DHT22;37894;53.172;6.598;2024-03-02T03:34:13;8.10;99.90
51853;DHT22;37894;53.172;6.598;2024-03-02T03:36:41;7.70;99.90
51853;DHT22;37894;53.172;6.598;2024-03-02T03:39:07;8.40;99.90
51853;DHT22;37894;53.172;6.598;2024-03-02T03:41:33;9.00;99.90
51853;DHT22;37894;53.172;6.598;2024-03-02T03:48:51;7.90;99.90
51853;DHT22;37894;53.172;6.598;2024-03-02T03:53:42;8.10;99.90
51853;DHT22;37894;53.172;6.598;2024-03-02T04:01:00;7.90;99.90
51853;DHT22;37894;53.172;6.598;2024-03-02T04:03:26;7.90;99.90
51853;DHT22;37894;53.172;6.598;2024-03-02T04:05:52;7.60;99.90
51853;DHT22;37894;53.172;6.598;2024-03-02T04:08:18;7.60;99.90
51853;DHT22;37894;53.172;6.598;2024-03-02T04:10:43;8.10;99.90
51853;DHT22;37894;53.172;6.598;2024-03-02T04:13:09;7.50;99.90
51853;DHT22;37894;53.172;6.598;2024-03-02T04:18:01;8.90;99.90
51853;DHT22;37894;53.172;6.598;2024-03-02T04:22:56;7.90;99.90
51853;DHT22;37894;53.172;6.598;2024-03-02T04:30:13;7.50;99.90
51853;DHT22;37894;53.172;6.598;2024-03-02T04:32:39;7.70;99.90
51853;DHT22;37894;53.172;6.598;2024-03-02T04:35:05;8.00;99.90
51853;DHT22;37894;53.172;6.598;2024-03-02T04:37:34;7.60;99.90
51853;DHT22;37894;53.172;6.598;2024-03-02T04:42:26;7.90;99.90
51853;DHT22;37894;53.172;6.598;2024-03-02T04:47:18;7.50;99.90
51853;DHT22;37894;53.172;6.598;2024-03-02T04:49:43;7.50;99.90
51853;DHT22;37894;53.172;6.598;2024-03-02T04:52:09;7.70;99.90
51853;DHT22;37894;53.172;6.598;2024-03-02T04:57:21;7.90;99.90
51853;DHT22;37894;53.172;6.598;2024-03-02T04:59:47;7.90;99.90
51853;DHT22;37894;53.172;6.598;2024-03-02T05:04:39;6.90;99.90
51853;DHT22;37894;53.172;6.598;2024-03-02T05:07:05;8.50;99.90
51853;DHT22;37894;53.172;6.598;2024-03-02T05:09:31;7.50;99.90
51853;DHT22;37894;53.172;6.598;2024-03-02T05:11:57;7.40;99.90
51853;DHT22;37894;53.172;6.598;2024-03-02T05:15:01;7.70;99.90
51853;DHT22;37894;53.172;6.598;2024-03-02T05:17:27;7.60;99.90
51853;DHT22;37894;53.172;6.598;2024-03-02T05:22:19;8.70;99.90
51853;DHT22;37894;53.172;6.598;2024-03-02T05:29:36;7.80;99.90
51853;DHT22;37894;53.172;6.598;2024-03-02T05:34:28;7.50;99.90
51853;DHT22;37894;53.172;6.598;2024-03-02T05:36:54;7.40;99.90
51853;DHT22;37894;53.172;6.598;2024-03-02T05:39:20;7.60;99.90
51853;DHT22;37894;53.172;6.598;2024-03-02T05:46:38;7.70;99.90
51853;DHT22;37894;53.172;6.598;2024-03-02T05:51:29;7.90;99.90
51853;DHT22;37894;53.172;6.598;2024-03-02T05:58:47;7.40;99.90
51853;DHT22;37894;53.172;6.598;2024-03-02T06:01:31;7.50;99.90
51853;DHT22;37894;53.172;6.598;2024-03-02T06:03:57;7.50;99.90
51853;DHT22;37894;53.172;6.598;2024-03-02T06:06:24;7.50;99.90
51853;DHT22;37894;53.172;6.598;2024-03-02T06:08:50;7.70;99.90
51853;DHT22;37894;53.172;6.598;2024-03-02T06:13:42;7.20;99.90
51853;DHT22;37894;53.172;6.598;2024-03-02T06:16:08;7.80;99.90
51853;DHT22;37894;53.172;6.598;2024-03-02T06:18:34;8.00;99.90
51853;DHT22;37894;53.172;6.598;2024-03-02T06:21:00;7.60;99.90
51853;DHT22;37894;53.172;6.598;2024-03-02T06:23:27;7.60;99.90
51853;DHT22;37894;53.172;6.598;2024-03-02T06:28:19;7.40;99.90
51853;DHT22;37894;53.172;6.598;2024-03-02T06:33:10;7.80;99.90
51853;DHT22;37894;53.172;6.598;2024-03-02T06:40:28;7.00;99.90
51853;DHT22;37894;53.172;6.598;2024-03-02T06:42:54;7.60;99.90
51853;DHT22;37894;53.172;6.598;2024-03-02T06:45:20;8.10;99.90
51853;DHT22;37894;53.172;6.598;2024-03-02T06:47:45;6.90;99.90
51853;DHT22;37894;53.172;6.598;2024-03-02T06:52:37;7.30;99.90
51853;DHT22;37894;53.172;6.598;2024-03-02T06:57:30;7.50;99.90
51853;DHT22;37894;53.172;6.598;2024-03-02T06:59:55;7.20;99.90
51853;DHT22;37894;53.172;6.598;2024-03-02T07:02:24;7.10;99.90
51853;DHT22;37894;53.172;6.598;2024-03-02T07:04:52;6.30;99.90
51853;DHT22;37894;53.172;6.598;2024-03-02T07:09:44;8.10;99.90
51853;DHT22;37894;53.172;6.598;2024-03-02T07:14:36;7.20;99.90
51853;DHT22;37894;53.172;6.598;2024-03-02T07:17:20;7.20;99.90
51853;DHT22;37894;53.172;6.598;2024-03-02T07:22:13;6.90;99.90
51853;DHT22;37894;53.172;6.598;2024-03-02T07:24:42;7.30;99.90
51853;DHT22;37894;53.172;6.598;2024-03-02T07:27:12;7.00;99.90
51853;DHT22;37894;53.172;6.598;2024-03-02T07:29:38;7.10;99.90
51853;DHT22;37894;53.172;6.598;2024-03-02T07:32:06;7.40;99.90
51853;DHT22;37894;53.172;6.598;2024-03-02T07:34:32;7.00;99.90
51853;DHT22;37894;53.172;6.598;2024-03-02T07:39:24;8.00;99.90
51853;DHT22;37894;53.172;6.598;2024-03-02T07:41:50;7.20;99.90
51853;DHT22;37894;53.172;6.598;2024-03-02T07:44:16;7.50;99.90
51853;DHT22;37894;53.172;6.598;2024-03-02T07:46:45;7.30;99.90
51853;DHT22;37894;53.172;6.598;2024-03-02T07:49:21;7.40;99.90
51853;DHT22;37894;53.172;6.598;2024-03-02T07:51:46;7.50;99.90
51853;DHT22;37894;53.172;6.598;2024-03-02T07:59:05;8.20;99.90
51853;DHT22;37894;53.172;6.598;2024-03-02T08:01:31;7.80;99.90
51853;DHT22;37894;53.172;6.598;2024-03-02T08:03:58;7.80;99.90
51853;DHT22;37894;53.172;6.598;2024-03-02T08:06:25;7.70;99.90
51853;DHT22;37894;53.172;6.598;2024-03-02T08:08:57;7.70;99.90
51853;DHT22;37894;53.172;6.598;2024-03-02T08:11:23;7.80;99.90
51853;DHT22;37894;53.172;6.598;2024-03-02T08:13:49;8.50;99.90
51853;DHT22;37894;53.172;6.598;2024-03-02T08:16:16;7.90;99.90
51853;DHT22;37894;53.172;6.598;2024-03-02T08:18:42;8.00;99.90
51853;DHT22;37894;53.172;6.598;2024-03-02T08:21:08;8.00;99.90
51853;DHT22;37894;53.172;6.598;2024-03-02T08:23:35;8.10;99.90
51853;DHT22;37894;53.172;6.598;2024-03-02T08:26:00;8.00;99.90
51853;DHT22;37894;53.172;6.598;2024-03-02T08:28:26;7.90;99.90
51853;DHT22;37894;53.172;6.598;2024-03-02T08:33:18;8.40;99.90
51853;DHT22;37894;53.172;6.598;2024-03-02T08:38:10;8.20;99.90
51853;DHT22;37894;53.172;6.598;2024-03-02T08:45:28;8.90;99.90
51853;DHT22;37894;53.172;6.598;2024-03-02T08:47:54;8.80;99.90
51853;DHT22;37894;53.172;6.598;2024-03-02T08:52:46;8.60;99.90
51853;DHT22;37894;53.172;6.598;2024-03-02T08:55:11;9.50;99.90
51853;DHT22;37894;53.172;6.598;2024-03-02T08:57:37;8.90;99.90
51853;DHT22;37894;53.172;6.598;2024-03-02T09:00:03;8.30;99.90
51853;DHT22;37894;53.172;6.598;2024-03-02T09:02:31;9.00;99.90
51853;DHT22;37894;53.172;6.598;2024-03-02T09:04:57;9.30;99.90
51853;DHT22;37894;53.172;6.598;2024-03-02T09:07:23;9.00;99.90
51853;DHT22;37894;53.172;6.598;2024-03-02T09:09:49;9.00;99.90
51853;DHT22;37894;53.172;6.598;2024-03-02T09:14:41;9.20;99.90
51853;DHT22;37894;53.172;6.598;2024-03-02T09:17:07;8.90;99.90
51853;DHT22;37894;53.172;6.598;2024-03-02T09:19:35;9.30;99.90
51853;DHT22;37894;53.172;6.598;2024-03-02T09:22:00;9.60;99.90
51853;DHT22;37894;53.172;6.598;2024-03-02T09:24:28;9.30;99.90
51853;DHT22;37894;53.172;6.598;2024-03-02T09:26:54;9.20;99.90
51853;DHT22;37894;53.172;6.598;2024-03-02T09:29:20;10.20;99.90
51853;DHT22;37894;53.172;6.598;2024-03-02T09:31:46;8.50;99.90
51853;DHT22;37894;53.172;6.598;2024-03-02T09:34:12;9.50;99.90
51853;DHT22;37894;53.172;6.598;2024-03-02T09:36:39;9.40;99.90
51853;DHT22;37894;53.172;6.598;2024-03-02T09:39:07;9.70;99.90
51853;DHT22;37894;53.172;6.598;2024-03-02T09:41:38;9.90;99.90
51853;DHT22;37894;53.172;6.598;2024-03-02T09:44:05;9.70;99.90
51853;DHT22;37894;53.172;6.598;2024-03-02T09:46:33;10.00;99.90
51853;DHT22;37894;53.172;6.598;2024-03-02T09:51:27;9.90;99.90
51853;DHT22;37894;53.172;6.598;2024-03-02T09:53:54;9.50;99.90
51853;DHT22;37894;53.172;6.598;2024-03-02T09:56:21;9.90;99.90
51853;DHT22;37894;53.172;6.598;2024-03-02T09:58:47;9.80;99.90
51853;DHT22;37894;53.172;6.598;2024-03-02T10:03:39;9.60;99.90
51853;DHT22;37894;53.172;6.598;2024-03-02T10:06:25;9.70;99.90
51853;DHT22;37894;53.172;6.598;2024-03-02T10:08:51;9.80;99.90
51853;DHT22;37894;53.172;6.598;2024-03-02T10:11:31;9.50;99.90
51853;DHT22;37894;53.172;6.598;2024-03-02T10:14:09;10.30;99.90
51853;DHT22;37894;53.172;6.598;2024-03-02T10:16:45;9.70;99.90
51853;DHT22;37894;53.172;6.598;2024-03-02T10:19:20;9.60;99.90
51853;DHT22;37894;53.172;6.598;2024-03-02T10:21:58;9.70;99.90
51853;DHT22;37894;53.172;6.598;2024-03-02T10:24:24;10.10;99.90
51853;DHT22;37894;53.172;6.598;2024-03-02T10:26:51;9.60;99.90
51853;DHT22;37894;53.172;6.598;2024-03-02T10:29:17;10.20;99.90
51853;DHT22;37894;53.172;6.598;2024-03-02T10:31:46;10.40;99.90
51853;DHT22;37894;53.172;6.598;2024-03-02T10:34:13;10.60;99.90
51853;DHT22;37894;53.172;6.598;2024-03-02T10:36:43;10.50;99.90
51853;DHT22;37894;53.172;6.598;2024-03-02T10:39:09;10.80;99.90
51853;DHT22;37894;53.172;6.598;2024-03-02T10:41:36;11.00;99.90
51853;DHT22;37894;53.172;6.598;2024-03-02T10:44:03;11.10;99.90
51853;DHT22;37894;53.172;6.598;2024-03-02T10:46:31;10.90;99.90
51853;DHT22;37894;53.172;6.598;2024-03-02T10:51:27;11.00;99.90
51853;DHT22;37894;53.172;6.598;2024-03-02T10:53:54;11.20;99.90
51853;DHT22;37894;53.172;6.598;2024-03-02T10:56:38;11.20;99.90
51853;DHT22;37894;53.172;6.598;2024-03-02T11:01:50;11.00;99.90
51853;DHT22;37894;53.172;6.598;2024-03-02T11:04:18;11.20;99.90
51853;DHT22;37894;53.172;6.598;2024-03-02T11:06:48;11.00;99.90
51853;DHT22;37894;53.172;6.598;2024-03-02T11:09:15;11.20;99.90
51853;DHT22;37894;53.172;6.598;2024-03-02T11:11:43;12.00;99.90
51853;DHT22;37894;53.172;6.598;2024-03-02T11:14:17;11.40;99.90
51853;DHT22;37894;53.172;6.598;2024-03-02T11:16:46;11.50;99.90
51853;DHT22;37894;53.172;6.598;2024-03-02T11:19:13;11.60;99.90
51853;DHT22;37894;53.172;6.598;2024-03-02T11:21:39;11.90;99.90
51853;DHT22;37894;53.172;6.598;2024-03-02T11:26:50;12.30;99.90
51853;DHT22;37894;53.172;6.598;2024-03-02T11:32:24;12.90;99.90
51853;DHT22;37894;53.172;6.598;2024-03-02T11:34:50;12.90;99.90
51853;DHT22;37894;53.172;6.598;2024-03-02T11:37:18;13.00;99.90
51853;DHT22;37894;53.172;6.598;2024-03-02T11:39:46;13.00;99.90
51853;DHT22;37894;53.172;6.598;2024-03-02T11:42:12;13.30;99.90
51853;DHT22;37894;53.172;6.598;2024-03-02T11:44:46;13.30;99.90
51853;DHT22;37894;53.172;6.598;2024-03-02T11:47:14;12.50;99.90
51853;DHT22;37894;53.172;6.598;2024-03-02T11:52:08;13.30;99.90
51853;DHT22;37894;53.172;6.598;2024-03-02T11:54:38;13.50;99.90
51853;DHT22;37894;53.172;6.598;2024-03-02T11:59:38;14.40;99.90
51853;DHT22;37894;53.172;6.598;2024-03-02T12:04:30;14.30;99.90
51853;DHT22;37894;53.172;6.598;2024-03-02T12:06:58;13.70;99.90
51853;DHT22;37894;53.172;6.598;2024-03-02T12:09:28;13.90;99.90
51853;DHT22;37894;53.172;6.598;2024-03-02T12:12:04;13.40;99.90
51853;DHT22;37894;53.172;6.598;2024-03-02T12:14:31;12.70;99.90
51853;DHT22;37894;53.172;6.598;2024-03-02T12:16:57;12.60;99.90
51853;DHT22;37894;53.172;6.598;2024-03-02T12:19:25;12.30;99.90
51853;DHT22;37894;53.172;6.598;2024-03-02T12:21:52;12.30;99.90
51853;DHT22;37894;53.172;6.598;2024-03-02T12:24:18;12.10;99.90
51853;DHT22;37894;53.172;6.598;2024-03-02T12:26:44;12.10;99.90
51853;DHT22;37894;53.172;6.598;2024-03-02T12:29:10;10.90;99.90
51853;DHT22;37894;53.172;6.598;2024-03-02T12:31:36;11.90;99.90
51853;DHT22;37894;53.172;6.598;2024-03-02T12:34:03;11.80;99.90
51853;DHT22;37894;53.172;6.598;2024-03-02T12:38:55;11.40;99.90
51853;DHT22;37894;53.172;6.598;2024-03-02T12:41:21;11.50;99.90
51853;DHT22;37894;53.172;6.598;2024-03-02T12:43:47;11.10;99.90
51853;DHT22;37894;53.172;6.598;2024-03-02T12:46:13;10.70;99.90
51853;DHT22;37894;53.172;6.598;2024-03-02T12:48:38;11.70;99.90
51853;DHT22;37894;53.172;6.598;2024-03-02T12:53:34;11.60;99.90
51853;DHT22;37894;53.172;6.598;2024-03-02T13:01:10;11.80;99.90
51853;DHT22;37894;53.172;6.598;2024-03-02T13:03:38;12.00;99.90
51853;DHT22;37894;53.172;6.598;2024-03-02T13:06:05;12.10;99.90
51853;DHT22;37894;53.172;6.598;2024-03-02T13:08:31;11.50;99.90
51853;DHT22;37894;53.172;6.598;2024-03-02T13:10:57;12.00;99.90
51853;DHT22;37894;53.172;6.598;2024-03-02T13:13:23;11.60;99.90
51853;DHT22;37894;53.172;6.598;2024-03-02T13:15:48;12.40;99.90
51853;DHT22;37894;53.172;6.598;2024-03-02T13:18:14;11.80;99.90
51853;DHT22;37894;53.172;6.598;2024-03-02T13:23:06;12.50;99.90
51853;DHT22;37894;53.172;6.598;2024-03-02T13:25:32;12.00;99.90
51853;DHT22;37894;53.172;6.598;2024-03-02T13:27:57;12.00;99.90
51853;DHT22;37894;53.172;6.598;2024-03-02T13:32:50;12.40;99.90
51853;DHT22;37894;53.172;6.598;2024-03-02T13:35:16;11.60;99.90
51853;DHT22;37894;53.172;6.598;2024-03-02T13:37:42;12.30;99.90
51853;DHT22;37894;53.172;6.598;2024-03-02T13:40:08;11.90;99.90
51853;DHT22;37894;53.172;6.598;2024-03-02T13:42:41;12.00;99.90
51853;DHT22;37894;53.172;6.598;2024-03-02T13:45:07;11.90;99.90
51853;DHT22;37894;53.172;6.598;2024-03-02T13:47:33;11.90;99.90
51853;DHT22;37894;53.172;6.598;2024-03-02T13:49:59;11.60;99.90
51853;DHT22;37894;53.172;6.598;2024-03-02T13:52:25;11.20;99.90
51853;DHT22;37894;53.172;6.598;2024-03-02T13:54:52;11.60;99.90
51853;DHT22;37894;53.172;6.598;2024-03-02T13:57:20;12.60;99.90
51853;DHT22;37894;53.172;6.598;2024-03-02T13:59:46;11.80;99.90
51853;DHT22;37894;53.172;6.598;2024-03-02T14:04:38;11.70;99.90
51853;DHT22;37894;53.172;6.598;2024-03-02T14:07:05;11.80;99.90
51853;DHT22;37894;53.172;6.598;2024-03-02T14:11:59;12.00;99.90
51853;DHT22;37894;53.172;6.598;2024-03-02T14:14:28;11.90;99.90
51853;DHT22;37894;53.172;6.598;2024-03-02T14:17:00;12.10;99.90
51853;DHT22;37894;53.172;6.598;2024-03-02T14:19:29;12.00;99.90
51853;DHT22;37894;53.172;6.598;2024-03-02T14:24:21;12.50;99.90
51853;DHT22;37894;53.172;6.598;2024-03-02T14:26:54;11.90;99.90
51853;DHT22;37894;53.172;6.598;2024-03-02T14:29:20;11.80;99.90
51853;DHT22;37894;53.172;6.598;2024-03-02T14:34:14;12.10;99.90
51853;DHT22;37894;53.172;6.598;2024-03-02T14:36:40;12.20;99.90
51853;DHT22;37894;53.172;6.598;2024-03-02T14:39:08;12.10;99.90
51853;DHT22;37894;53.172;6.598;2024-03-02T14:41:36;12.00;99.90
51853;DHT22;37894;53.172;6.598;2024-03-02T14:46:28;11.80;99.90
51853;DHT22;37894;53.172;6.598;2024-03-02T14:48:53;11.70;99.90
51853;DHT22;37894;53.172;6.598;2024-03-02T14:51:19;12.40;99.90
51853;DHT22;37894;53.172;6.598;2024-03-02T14:58:39;11.30;99.90
51853;DHT22;37894;53.172;6.598;2024-03-02T15:03:32;12.20;99.90
51853;DHT22;37894;53.172;6.598;2024-03-02T15:13:16;12.30;99.90
51853;DHT22;37894;53.172;6.598;2024-03-02T15:18:08;11.70;99.90
51853;DHT22;37894;53.172;6.598;2024-03-02T15:20:34;11.50;99.90
51853;DHT22;37894;53.172;6.598;2024-03-02T15:23:00;12.70;99.90
51853;DHT22;37894;53.172;6.598;2024-03-02T15:25:25;12.00;99.90
51853;DHT22;37894;53.172;6.598;2024-03-02T15:30:17;11.60;99.90
51853;DHT22;37894;53.172;6.598;2024-03-02T15:35:09;11.50;99.90
51853;DHT22;37894;53.172;6.598;2024-03-02T15:40:02;11.70;99.90
51853;DHT22;37894;53.172;6.598;2024-03-02T15:42:35;12.00;99.90
51853;DHT22;37894;53.172;6.598;2024-03-02T15:47:27;11.80;99.90
51853;DHT22;37894;53.172;6.598;2024-03-02T15:49:53;11.90;99.90
51853;DHT22;37894;53.172;6.598;2024-03-02T15:54:47;11.80;99.90
51853;DHT22;37894;53.172;6.598;2024-03-02T15:59:40;11.50;99.90
51853;DHT22;37894;53.172;6.598;2024-03-02T16:02:05;11.50;99.90
51853;DHT22;37894;53.172;6.598;2024-03-02T16:04:31;11.10;99.90
51853;DHT22;37894;53.172;6.598;2024-03-02T16:06:57;11.70;99.90
51853;DHT22;37894;53.172;6.598;2024-03-02T16:09:22;11.30;99.90
51853;DHT22;37894;53.172;6.598;2024-03-02T16:11:48;10.40;99.90
51853;DHT22;37894;53.172;6.598;2024-03-02T16:14:14;11.20;99.90
51853;DHT22;37894;53.172;6.598;2024-03-02T16:16:40;11.10;99.90
51853;DHT22;37894;53.172;6.598;2024-03-02T16:19:05;11.10;99.90
51853;DHT22;37894;53.172;6.598;2024-03-02T16:21:31;12.00;99.90
51853;DHT22;37894;53.172;6.598;2024-03-02T16:23:57;11.40;99.90
51853;DHT22;37894;53.172;6.598;2024-03-02T16:28:50;11.20;99.90
51853;DHT22;37894;53.172;6.598;2024-03-02T16:31:16;10.80;99.90
51853;DHT22;37894;53.172;6.598;2024-03-02T16:38:36;11.00;99.90
51853;DHT22;37894;53.172;6.598;2024-03-02T16:43:28;11.80;99.90
51853;DHT22;37894;53.172;6.598;2024-03-02T16:45:54;11.00;99.90
51853;DHT22;37894;53.172;6.598;2024-03-02T16:48:19;10.80;99.90
51853;DHT22;37894;53.172;6.598;2024-03-02T16:53:11;10.60;99.90
51853;DHT22;37894;53.172;6.598;2024-03-02T16:55:37;10.80;99.90
51853;DHT22;37894;53.172;6.598;2024-03-02T16:58:03;11.60;99.90
51853;DHT22;37894;53.172;6.598;2024-03-02T17:02:55;10.60;99.90
51853;DHT22;37894;53.172;6.598;2024-03-02T17:05:20;11.20;99.90
51853;DHT22;37894;53.172;6.598;2024-03-02T17:07:50;10.70;99.90
51853;DHT22;37894;53.172;6.598;2024-03-02T17:10:16;10.70;99.90
51853;DHT22;37894;53.172;6.598;2024-03-02T17:12:42;10.60;99.90
51853;DHT22;37894;53.172;6.598;2024-03-02T17:15:08;10.40;99.90
51853;DHT22;37894;53.172;6.598;2024-03-02T17:17:34;11.40;99.90
51853;DHT22;37894;53.172;6.598;2024-03-02T17:20:00;10.60;99.90
51853;DHT22;37894;53.172;6.598;2024-03-02T17:22:27;10.00;99.90
51853;DHT22;37894;53.172;6.598;2024-03-02T17:29:47;10.20;99.90
51853;DHT22;37894;53.172;6.598;2024-03-02T17:32:13;9.60;99.90
51853;DHT22;37894;53.172;6.598;2024-03-02T17:37:05;10.40;99.90
51853;DHT22;37894;53.172;6.598;2024-03-02T17:39:30;10.00;99.90
51853;DHT22;37894;53.172;6.598;2024-03-02T17:44:22;9.90;99.90
51853;DHT22;37894;53.172;6.598;2024-03-02T17:49:14;10.00;99.90
51853;DHT22;37894;53.172;6.598;2024-03-02T17:51:40;10.20;99.90
51853;DHT22;37894;53.172;6.598;2024-03-02T17:54:05;9.70;99.90
51853;DHT22;37894;53.172;6.598;2024-03-02T18:01:23;9.60;99.90
51853;DHT22;37894;53.172;6.598;2024-03-02T18:08:41;8.90;99.90
51853;DHT22;37894;53.172;6.598;2024-03-02T18:13:33;9.40;99.90
51853;DHT22;37894;53.172;6.598;2024-03-02T18:16:00;9.30;99.90
51853;DHT22;37894;53.172;6.598;2024-03-02T18:18:26;9.70;99.90
51853;DHT22;37894;53.172;6.598;2024-03-02T18:20:52;9.70;99.90
51853;DHT22;37894;53.172;6.598;2024-03-02T18:28:13;10.00;99.90
51853;DHT22;37894;53.172;6.598;2024-03-02T18:30:39;9.70;99.90
51853;DHT22;37894;53.172;6.598;2024-03-02T18:35:31;9.50;99.90
51853;DHT22;37894;53.172;6.598;2024-03-02T18:42:49;9.40;99.90
51853;DHT22;37894;53.172;6.598;2024-03-02T18:47:41;9.80;99.90
51853;DHT22;37894;53.172;6.598;2024-03-02T18:50:07;9.40;99.90
51853;DHT22;37894;53.172;6.598;2024-03-02T18:52:36;9.30;99.90
51853;DHT22;37894;53.172;6.598;2024-03-02T18:55:03;10.00;99.90
51853;DHT22;37894;53.172;6.598;2024-03-02T18:57:32;9.70;99.90
51853;DHT22;37894;53.172;6.598;2024-03-02T18:59:58;9.80;99.90
51853;DHT22;37894;53.172;6.598;2024-03-02T19:02:24;9.80;99.90
51853;DHT22;37894;53.172;6.598;2024-03-02T19:04:53;10.00;99.90
51853;DHT22;37894;53.172;6.598;2024-03-02T19:07:19;9.60;99.90
51853;DHT22;37894;53.172;6.598;2024-03-02T19:09:45;9.20;99.90
51853;DHT22;37894;53.172;6.598;2024-03-02T19:14:37;10.70;99.90
51853;DHT22;37894;53.172;6.598;2024-03-02T19:17:03;9.40;99.90
51853;DHT22;37894;53.172;6.598;2024-03-02T19:21:55;9.10;99.90
51853;DHT22;37894;53.172;6.598;2024-03-02T19:24:21;9.80;99.90
51853;DHT22;37894;53.172;6.598;2024-03-02T19:29:13;9.90;99.90
51853;DHT22;37894;53.172;6.598;2024-03-02T19:36:30;8.80;99.90
51853;DHT22;37894;53.172;6.598;2024-03-02T19:38:56;10.00;99.90
51853;DHT22;37894;53.172;6.598;2024-03-02T19:43:49;9.60;99.90
51853;DHT22;37894;53.172;6.598;2024-03-02T19:46:14;9.80;99.90
51853;DHT22;37894;53.172;6.598;2024-03-02T19:48:40;9.90;99.90
51853;DHT22;37894;53.172;6.598;2024-03-02T19:51:06;9.40;99.90
51853;DHT22;37894;53.172;6.598;2024-03-02T19:53:34;9.70;99.90
51853;DHT22;37894;53.172;6.598;2024-03-02T19:56:00;9.60;99.90
51853;DHT22;37894;53.172;6.598;2024-03-02T19:58:26;9.80;99.90
51853;DHT22;37894;53.172;6.598;2024-03-02T20:00:52;9.50;99.90
51853;DHT22;37894;53.172;6.598;2024-03-02T20:05:44;9.40;99.90
51853;DHT22;37894;53.172;6.598;2024-03-02T20:08:09;9.50;99.90
51853;DHT22;37894;53.172;6.598;2024-03-02T20:13:01;9.50;99.90
51853;DHT22;37894;53.172;6.598;2024-03-02T20:17:56;9.30;99.90
51853;DHT22;37894;53.172;6.598;2024-03-02T20:20:21;9.90;99.90
51853;DHT22;37894;53.172;6.598;2024-03-02T20:25:13;9.60;99.90
51853;DHT22;37894;53.172;6.598;2024-03-02T20:27:41;10.20;99.90
51853;DHT22;37894;53.172;6.598;2024-03-02T20:30:09;10.00;99.90
51853;DHT22;37894;53.172;6.598;2024-03-02T20:32:35;9.90;99.90
51853;DHT22;37894;53.172;6.598;2024-03-02T20:35:01;9.70;99.90
51853;DHT22;37894;53.172;6.598;2024-03-02T20:37:27;9.60;99.90
51853;DHT22;37894;53.172;6.598;2024-03-02T20:39:53;9.50;99.90
51853;DHT22;37894;53.172;6.598;2024-03-02T20:47:12;9.20;99.90
51853;DHT22;37894;53.172;6.598;2024-03-02T20:52:08;9.60;99.90
51853;DHT22;37894;53.172;6.598;2024-03-02T20:54:34;8.90;99.90
51853;DHT22;37894;53.172;6.598;2024-03-02T20:57:00;10.00;99.90
51853;DHT22;37894;53.172;6.598;2024-03-02T20:59:33;10.40;99.90